Metar GG30 METAR message from awiacja.imgw.pl Metar G30 EPSC METAR EPSC 240430Z 13009KT 2300 BR OVC002 11/11 Q1013 =